Terminal Aerodrome Forecast
Issued by NWS

Home | Current Version | Previous Version | Text Only | Print | Product List | Glossary On
Versions: 1 2 3 4 5 6 7 8 9 10 11 12 13 14
000
FTUS44 KEPZ 200500 RRA
TAFTCS
TAF
KTCS 200546Z 2006/2106 25010KT P6SM -SHRA SCT020 BKN060
     FM200900 34007KT P6SM VCSH SCT020 BKN050
     FM201400 02006KT P6SM VCSH SCT015 BKN040
     FM202100 11008KT P6SM VCTS SCT015 BKN050CB=

USA.gov is the U.S. government's official web portal to all federal, state and local government web resources and services.